Time;durP1;ratioP1;P1;durP2;ratioP2;P2;SDS_P1;SDS_P2;PMS_P1;PMS_P2;Temp;Humidity;BMP_temperature;BMP_pressure;BME280_temperature;BME280_humidity;BME280_pressure;Samples;Min_cycle;Max_cycle;Signal;HPM_P1;HPM_P2
2023/09/07 00:01:43;;;;;;;;;6.67;5.00;;;;;26.26;43.14;101120.59;5118053;27;45354;-70
2023/09/07 00:04:08;;;;;;;;;4.33;4.33;;;;;26.20;43.30;101116.91;5117578;27;59572;-71
2023/09/07 00:06:34;;;;;;;;;7.00;6.00;;;;;26.13;42.93;101105.31;5118399;27;45391;-70
2023/09/07 00:09:00;;;;;;;;;5.00;5.00;;;;;26.00;43.24;101083.75;5117753;27;46568;-70
2023/09/07 00:11:25;;;;;;;;;6.00;6.00;;;;;26.14;43.23;101106.97;5117761;27;45308;-70
2023/09/07 00:13:50;;;;;;;;;5.67;4.33;;;;;26.08;43.35;101107.94;5118150;27;45370;-70
2023/09/07 00:16:16;;;;;;;;;6.00;6.00;;;;;26.13;43.38;101108.03;5118469;27;45426;-70
2023/09/07 00:18:41;;;;;;;;;5.00;5.00;;;;;25.96;43.24;101077.13;5117760;27;46451;-71
2023/09/07 00:21:07;;;;;;;;;5.33;5.33;;;;;26.13;43.15;101112.66;5117611;27;52675;-70
2023/09/07 00:23:32;;;;;;;;;5.00;5.00;;;;;25.77;43.22;101050.00;5117848;27;45258;-70
2023/09/07 00:25:57;;;;;;;;;7.00;7.00;;;;;26.05;43.24;101100.22;5117791;27;50586;-70
2023/09/07 00:28:22;;;;;;;;;6.00;5.00;;;;;26.06;43.20;101100.00;5117382;27;51392;-72
2023/09/07 00:30:48;;;;;;;;;6.00;6.00;;;;;25.73;43.31;101050.72;5117872;27;45406;-71
2023/09/07 00:33:13;;;;;;;;;7.33;6.33;;;;;25.92;43.42;101075.94;5117872;27;45489;-71
2023/09/07 00:35:38;;;;;;;;;7.33;6.00;;;;;25.98;43.32;101094.88;5099016;27;45516;-70
2023/09/07 00:38:04;;;;;;;;;6.00;5.00;;;;;25.90;42.93;101086.25;5117224;27;53974;-70
2023/09/07 00:40:30;;;;;;;;;6.00;5.00;;;;;25.94;43.22;101095.59;5117825;27;45460;-69
2023/09/07 00:42:55;;;;;;;;;8.33;6.00;;;;;25.94;43.28;101096.44;5117764;27;45302;-69
2023/09/07 00:45:21;;;;;;;;;6.00;5.00;;;;;25.93;43.57;101104.84;5118014;27;45492;-69
2023/09/07 00:47:47;;;;;;;;;6.00;6.00;;;;;25.82;43.29;101092.88;5117448;27;46327;-71
2023/09/07 00:50:19;;;;;;;;;5.67;4.67;;;;;25.91;43.45;101109.69;5117468;27;45341;-70
2023/09/07 00:52:47;;;;;;;;;7.00;7.00;;;;;25.87;43.40;101100.34;5117558;27;45442;-70
2023/09/07 00:55:13;;;;;;;;;5.00;5.00;;;;;25.85;43.20;101095.13;5099587;27;45354;-70
2023/09/07 00:57:39;;;;;;;;;7.67;5.33;;;;;25.76;43.40;101089.19;5102280;27;47021;-70
2023/09/07 01:00:07;;;;;;;;;6.67;5.33;;;;;25.71;43.16;101082.81;5120810;27;45483;-71
2023/09/07 01:02:33;;;;;;;;;5.33;5.00;;;;;25.82;43.86;101102.94;5120881;27;45285;-70
2023/09/07 01:04:58;;;;;;;;;7.67;7.67;;;;;25.74;43.18;101085.88;5120836;27;45282;-69
2023/09/07 01:07:28;;;;;;;;;7.33;6.00;;;;;25.79;43.31;101093.34;5120610;27;47566;-70
2023/09/07 01:09:59;;;;;;;;;6.33;5.33;;;;;25.76;43.40;101089.19;5120911;27;45461;-71
2023/09/07 01:12:24;;;;;;;;;7.00;5.00;;;;;25.73;43.39;101089.66;5120877;27;45421;-70
2023/09/07 01:14:50;;;;;;;;;6.33;5.33;;;;;25.71;43.42;101090.97;5120753;27;45363;-70
2023/09/07 01:17:15;;;;;;;;;8.00;5.00;;;;;25.59;43.28;101066.41;5120510;27;46532;-70
2023/09/07 01:19:40;;;;;;;;;5.67;5.67;;;;;25.68;43.56;101080.56;5119547;27;64497;-69
2023/09/07 01:22:08;;;;;;;;;7.67;7.00;;;;;25.68;43.55;101105.06;5120103;27;56800;-70
2023/09/07 01:24:35;;;;;;;;;7.00;5.00;;;;;25.65;43.65;101092.72;5120780;27;45548;-69
2023/09/07 01:27:05;;;;;;;;;5.00;5.00;;;;;25.46;43.42;101072.94;5120334;27;46421;-69
2023/09/07 01:29:31;;;;;;;;;6.00;6.00;;;;;25.62;43.71;101098.63;5120455;27;45340;-70
2023/09/07 01:31:56;;;;;;;;;6.00;5.00;;;;;25.61;43.37;101088.78;5120342;27;45420;-70
2023/09/07 01:34:23;;;;;;;;;6.00;6.00;;;;;25.60;43.48;101092.56;5101772;27;45665;-69
2023/09/07 01:36:48;;;;;;;;;7.33;7.33;;;;;25.58;44.00;101091.97;5120262;27;45709;-69
2023/09/07 01:39:14;;;;;;;;;8.00;6.67;;;;;25.56;43.31;101094.13;5120267;27;45296;-70
2023/09/07 01:41:39;;;;;;;;;7.33;5.33;;;;;25.49;43.50;101077.06;5120322;27;45580;-70
2023/09/07 01:44:05;;;;;;;;;6.00;6.00;;;;;25.25;43.67;101043.53;5120771;27;45360;-70
2023/09/07 01:46:30;;;;;;;;;7.00;6.00;;;;;25.36;44.20;101060.94;5120247;27;45710;-71
2023/09/07 01:48:55;;;;;;;;;11.00;5.67;;;;;25.46;44.05;101083.00;5119746;27;45331;-68
2023/09/07 01:51:20;;;;;;;;;7.33;6.33;;;;;25.41;44.37;101080.13;5120402;27;45300;-71
2023/09/07 01:53:49;;;;;;;;;7.00;7.00;;;;;25.43;45.00;101084.28;5120592;27;45354;-69
2023/09/07 01:56:17;;;;;;;;;7.67;6.00;;;;;25.42;45.25;101081.78;5120107;27;45788;-70
2023/09/07 01:58:43;;;;;;;;;11.00;9.33;;;;;25.29;44.88;101068.38;5119386;27;56516;-70
2023/09/07 02:01:23;;;;;;;;;9.00;7.33;;;;;25.31;45.39;101074.44;5119975;27;45292;-71
2023/09/07 02:03:48;;;;;;;;;6.00;5.00;;;;;25.31;45.58;101082.59;5120056;27;45363;-69
2023/09/07 02:06:14;;;;;;;;;6.33;6.33;;;;;25.30;45.50;101080.94;5119936;27;47435;-69
2023/09/07 02:08:39;;;;;;;;;6.67;6.67;;;;;25.32;45.31;101084.25;5119082;27;47217;-69
2023/09/07 02:11:05;;;;;;;;;7.67;5.67;;;;;25.28;44.62;101081.16;5119879;27;45272;-69
2023/09/07 02:13:31;;;;;;;;;10.00;7.00;;;;;25.23;44.49;101070.16;5120231;27;45336;-70
2023/09/07 02:15:56;;;;;;;;;5.67;5.00;;;;;25.20;45.78;101069.78;5119618;27;46399;-71
2023/09/07 02:18:21;;;;;;;;;8.00;7.67;;;;;25.22;45.77;101073.91;5119730;27;45297;-69
2023/09/07 02:20:47;;;;;;;;;5.00;5.00;;;;;25.13;46.11;101065.28;5119761;27;45546;-72
2023/09/07 02:23:14;;;;;;;;;11.67;8.00;;;;;24.96;46.69;101044.34;5119730;27;45525;-70
2023/09/07 02:25:40;;;;;;;;;7.00;7.00;;;;;25.13;46.21;101078.88;5119610;27;45596;-71
2023/09/07 02:28:06;;;;;;;;;7.00;7.00;;;;;25.08;46.10;101075.19;5119465;27;45599;-70
2023/09/07 02:30:32;;;;;;;;;7.00;6.33;;;;;25.04;46.60;101069.41;5119754;27;45419;-69
2023/09/07 02:32:57;;;;;;;;;9.67;8.00;;;;;25.03;46.86;101073.19;5119644;27;45310;-70
2023/09/07 02:35:22;;;;;;;;;7.00;7.00;;;;;25.06;46.42;101072.72;5119080;27;54235;-70
2023/09/07 02:37:48;;;;;;;;;5.00;5.00;;;;;25.06;46.56;101078.16;5119468;27;45243;-69
2023/09/07 02:40:15;;;;;;;;;6.00;5.33;;;;;24.76;46.33;101029.16;5119443;27;45462;-70
2023/09/07 02:42:41;;;;;;;;;6.67;6.67;;;;;24.98;46.64;101078.41;5119565;27;45268;-70
2023/09/07 02:45:07;;;;;;;;;6.33;6.33;;;;;24.93;47.13;101083.72;5100415;27;46466;-70
2023/09/07 02:47:32;;;;;;;;;6.00;6.00;;;;;24.85;47.11;101081.34;5119117;27;45450;-70
2023/09/07 02:49:57;;;;;;;;;9.00;7.00;;;;;24.81;47.09;101082.84;5119103;27;45335;-70
2023/09/07 02:52:23;;;;;;;;;6.33;6.00;;;;;24.68;47.10;101061.28;5119265;27;45281;-70
2023/09/07 02:54:48;;;;;;;;;9.00;7.67;;;;;24.75;47.15;101079.16;5100114;27;54739;-70
2023/09/07 02:57:13;;;;;;;;;9.00;8.00;;;;;24.74;47.08;101079.38;5118994;27;49807;-70
2023/09/07 02:59:38;;;;;;;;;7.00;7.00;;;;;24.67;47.15;101067.78;5119105;27;45309;-70
2023/09/07 03:02:04;;;;;;;;;7.00;5.33;;;;;24.63;47.44;101072.00;5119221;27;45207;-69
2023/09/07 03:04:29;;;;;;;;;7.67;7.67;;;;;24.65;47.41;101078.06;5118674;27;47546;-70
2023/09/07 03:06:55;;;;;;;;;7.00;7.00;;;;;24.63;47.17;101072.84;5118786;27;45523;-70
2023/09/07 03:09:20;;;;;;;;;8.00;7.00;;;;;24.34;47.56;101030.97;5118897;27;45346;-69
2023/09/07 03:11:45;;;;;;;;;8.00;8.00;;;;;24.51;47.76;101070.06;5118324;27;58409;-70
2023/09/07 03:14:11;;;;;;;;;8.00;7.00;;;;;24.43;47.73;101067.66;5118652;27;45466;-69
2023/09/07 03:16:36;;;;;;;;;9.00;7.33;;;;;24.40;48.43;101068.09;5118951;27;45532;-69
2023/09/07 03:19:01;;;;;;;;;6.67;6.33;;;;;24.21;48.11;101034.63;5117260;27;45215;-69
2023/09/07 03:21:29;;;;;;;;;9.33;9.33;;;;;24.36;48.04;101056.03;5118942;27;45508;-68
2023/09/07 03:23:57;;;;;;;;;9.67;9.00;;;;;24.42;48.09;101065.97;5117024;27;46920;-70
2023/09/07 03:26:23;;;;;;;;;8.00;8.00;;;;;24.39;48.69;101066.44;5118553;27;45718;-70
2023/09/07 03:28:48;;;;;;;;;9.67;8.00;;;;;24.30;48.42;101054.22;5118631;27;45293;-71
2023/09/07 03:31:13;;;;;;;;;8.00;7.00;;;;;24.37;48.31;101068.56;5118735;27;45298;-71
2023/09/07 03:33:39;;;;;;;;;7.00;7.00;;;;;24.15;48.28;101038.25;5118431;27;46489;-71
2023/09/07 03:36:05;;;;;;;;;7.33;7.33;;;;;24.35;48.42;101072.56;5118394;27;45251;-69
2023/09/07 03:38:30;;;;;;;;;5.67;5.67;;;;;24.27;48.34;101063.63;5118570;27;45467;-69
2023/09/07 03:40:55;;;;;;;;;8.00;8.00;;;;;24.33;48.42;101069.22;5118970;27;45295;-69
2023/09/07 03:43:21;;;;;;;;;6.00;6.00;;;;;24.22;48.94;101065.34;5117965;27;45598;-70
2023/09/07 03:45:46;;;;;;;;;9.00;6.00;;;;;23.79;49.11;101011.91;5118522;27;45442;-69
2023/09/07 03:48:12;;;;;;;;;9.00;9.00;;;;;24.00;48.92;101045.09;5118259;27;45471;-70
2023/09/07 03:50:37;;;;;;;;;10.33;8.00;;;;;23.94;49.18;101047.69;5118125;27;45551;-71
2023/09/07 03:53:03;;;;;;;;;7.33;7.33;;;;;24.03;49.26;101064.53;5117898;27;47155;-69
2023/09/07 03:55:28;;;;;;;;;7.67;7.00;;;;;23.95;49.58;101070.22;5118125;27;45313;-70
2023/09/07 03:57:53;;;;;;;;;10.00;10.00;;;;;23.89;49.87;101074.69;5118094;27;45362;-71
2023/09/07 04:00:19;;;;;;;;;7.33;7.33;;;;;23.76;50.07;101063.94;5117914;27;45228;-71
2023/09/07 04:02:45;;;;;;;;;13.00;9.67;;;;;23.80;50.19;101075.16;5117838;27;45428;-71
2023/09/07 04:05:10;;;;;;;;;13.00;9.00;;;;;23.70;49.99;101050.44;5117721;27;45264;-70
2023/09/07 04:07:36;;;;;;;;;10.33;9.00;;;;;23.81;49.77;101077.66;5118058;27;45399;-70
2023/09/07 04:10:02;;;;;;;;;8.00;8.00;;;;;23.78;49.85;101075.41;5099264;27;45845;-70
2023/09/07 04:12:28;;;;;;;;;8.00;7.00;;;;;23.82;49.75;101078.50;5117651;27;46244;-70
2023/09/07 04:14:53;;;;;;;;;10.00;8.67;;;;;23.83;50.05;101082.91;5117784;27;45431;-71
2023/09/07 04:17:18;;;;;;;;;9.33;8.33;;;;;23.75;49.97;101070.41;5117740;27;45308;-69
2023/09/07 04:19:44;;;;;;;;;10.00;10.00;;;;;23.70;50.08;101064.00;5098945;27;45462;-69
2023/09/07 04:22:10;;;;;;;;;8.00;7.67;;;;;23.79;49.85;101077.06;5117030;27;46497;-70
2023/09/07 04:24:36;;;;;;;;;11.00;10.67;;;;;23.74;50.16;101073.34;5117650;27;45351;-69
2023/09/07 04:27:02;;;;;;;;;8.67;8.67;;;;;23.48;50.12;101017.41;5117362;27;45414;-70
2023/09/07 04:29:28;;;;;;;;;9.33;9.33;;;;;23.75;50.21;101073.13;5117677;27;45367;-69
2023/09/07 04:31:53;;;;;;;;;11.33;11.33;;;;;23.63;49.97;101059.47;5120078;27;46455;-69
2023/09/07 04:34:19;;;;;;;;;9.33;7.33;;;;;23.67;50.21;101065.28;5120813;27;45459;-69
2023/09/07 04:36:44;;;;;;;;;8.00;8.00;;;;;23.71;50.38;101071.94;5120535;27;45817;-69
2023/09/07 04:39:10;;;;;;;;;10.00;9.00;;;;;23.47;49.86;101029.31;5121160;27;45537;-70
2023/09/07 04:41:36;;;;;;;;;12.00;12.00;;;;;23.41;50.06;101011.19;5120760;27;46922;-70
2023/09/07 04:44:01;;;;;;;;;8.00;8.00;;;;;23.65;50.14;101059.25;5102031;27;45380;-68
2023/09/07 04:46:27;;;;;;;;;10.00;7.00;;;;;23.68;50.14;101058.81;5120845;27;45480;-69
2023/09/07 04:48:52;;;;;;;;;11.00;10.00;;;;;23.65;50.15;101060.06;5102179;27;45493;-70
2023/09/07 04:51:17;;;;;;;;;10.33;9.67;;;;;23.71;50.25;101068.38;5116722;27;48654;-70
2023/09/07 04:53:43;;;;;;;;;10.00;10.00;;;;;23.66;50.01;101069.06;5111868;27;45332;-70
2023/09/07 04:56:08;;;;;;;;;8.00;7.33;;;;;23.53;50.52;101061.81;5117673;27;45249;-71
2023/09/07 04:58:35;;;;;;;;;11.00;10.67;;;;;23.63;50.54;101072.22;5119062;27;45569;-70
2023/09/07 05:01:04;;;;;;;;;13.67;10.00;;;;;23.59;50.51;101070.97;5108419;27;47947;-70
2023/09/07 05:03:30;;;;;;;;;10.67;9.67;;;;;23.50;50.77;101067.69;5108593;27;45321;-70
2023/09/07 05:05:56;;;;;;;;;9.67;9.00;;;;;23.28;50.95;101039.28;5081477;27;45420;-69
2023/09/07 05:08:22;;;;;;;;;8.67;8.67;;;;;23.53;50.88;101079.97;5100951;27;45555;-69
2023/09/07 05:10:48;;;;;;;;;8.67;8.00;;;;;23.49;51.02;101081.47;5099851;27;46845;-69
2023/09/07 05:13:13;;;;;;;;;12.33;12.33;;;;;23.47;50.95;101086.28;5116870;27;45498;-70
2023/09/07 05:15:47;;;;;;;;;11.00;9.33;;;;;23.16;50.94;101044.56;5120469;27;45325;-71
2023/09/07 05:18:13;;;;;;;;;11.00;11.00;;;;;23.43;50.76;101094.06;5120545;27;45303;-70
2023/09/07 05:20:38;;;;;;;;;10.33;10.33;;;;;23.40;51.21;101077.34;5101011;27;47371;-70
2023/09/07 05:23:04;;;;;;;;;12.00;11.00;;;;;23.23;50.71;101061.63;5119913;27;45280;-70
2023/09/07 05:25:29;;;;;;;;;13.67;11.00;;;;;23.44;50.62;101090.28;5120046;27;45227;-70
2023/09/07 05:27:55;;;;;;;;;11.00;10.00;;;;;23.36;51.22;101094.09;5120678;27;45237;-69
2023/09/07 05:30:20;;;;;;;;;10.33;9.33;;;;;23.31;51.63;101091.19;5118216;27;45324;-70
2023/09/07 05:32:45;;;;;;;;;10.67;10.67;;;;;23.28;51.42;101086.22;5119908;27;45240;-69
2023/09/07 05:35:12;;;;;;;;;14.67;10.00;;;;;23.33;51.49;101096.41;5119465;27;50387;-70
2023/09/07 05:37:37;;;;;;;;;8.67;8.67;;;;;23.33;51.03;101091.81;5104737;27;45538;-69
2023/09/07 05:40:03;;;;;;;;;12.00;12.00;;;;;23.36;51.35;101104.94;5098953;27;46412;-71
2023/09/07 05:42:29;;;;;;;;;8.33;8.33;;;;;23.35;51.41;101106.00;5097852;27;45329;-69
2023/09/07 05:44:54;;;;;;;;;9.33;9.33;;;;;23.12;51.33;101065.03;5100678;27;45511;-70
2023/09/07 05:47:20;;;;;;;;;13.33;12.33;;;;;23.23;51.58;101087.94;5097901;27;45310;-70
2023/09/07 05:49:45;;;;;;;;;11.33;10.33;;;;;23.19;51.80;101092.94;5098413;27;57745;-70
2023/09/07 05:52:10;;;;;;;;;10.67;10.67;;;;;23.24;51.83;101098.56;5098324;27;58753;-70
2023/09/07 05:54:35;;;;;;;;;11.67;11.00;;;;;23.31;51.61;101104.78;5080475;27;45321;-70
2023/09/07 05:57:01;;;;;;;;;11.67;11.67;;;;;22.81;51.49;101008.03;5099450;27;45354;-72
2023/09/07 05:59:26;;;;;;;;;14.67;13.00;;;;;23.35;51.22;101095.13;5099320;27;46026;-74
2023/09/07 06:01:51;;;;;;;;;12.00;12.00;;;;;23.42;50.93;101102.38;5097519;27;45656;-70
2023/09/07 06:04:17;;;;;;;;;10.00;10.00;;;;;23.43;51.29;101109.50;5098660;27;45248;-71
2023/09/07 06:06:42;;;;;;;;;11.67;10.67;;;;;23.45;51.00;101101.97;5080622;27;45415;-71
2023/09/07 06:09:07;;;;;;;;;13.33;13.33;;;;;23.14;51.11;101068.34;5098633;27;45557;-70
2023/09/07 06:11:34;;;;;;;;;14.33;12.67;;;;;23.44;51.72;101108.44;5117579;27;45420;-70
2023/09/07 06:14:00;;;;;;;;;11.00;11.00;;;;;23.41;51.75;101106.97;5107096;27;45466;-70
2023/09/07 06:16:25;;;;;;;;;15.00;12.33;;;;;23.24;50.96;101074.16;5098795;27;45359;-73
2023/09/07 06:18:50;;;;;;;;;12.33;12.33;;;;;23.45;51.40;101100.09;5097010;27;48334;-71
2023/09/07 06:21:16;;;;;;;;;12.00;10.33;;;;;23.53;51.31;101120.69;5083734;27;45373;-70
2023/09/07 06:23:41;;;;;;;;;14.00;11.67;;;;;23.66;50.93;101112.47;5096725;27;48553;-70
2023/09/07 06:26:07;;;;;;;;;11.67;10.00;;;;;23.93;50.37;101108.47;5103971;27;45402;-69
2023/09/07 06:28:32;;;;;;;;;11.33;10.33;;;;;24.42;49.50;101116.78;5108494;27;46530;-69
2023/09/07 06:30:58;;;;;;;;;11.00;10.00;;;;;24.78;48.44;101110.50;5097372;27;45367;-70
2023/09/07 06:33:23;;;;;;;;;14.33;10.67;;;;;25.23;47.39;101110.13;5107905;27;45435;-71
2023/09/07 06:35:49;;;;;;;;;12.00;11.00;;;;;25.56;46.83;101105.00;5119181;27;45304;-70
2023/09/07 06:38:14;;;;;;;;;17.33;15.33;;;;;25.86;46.17;101094.06;5118650;27;45619;-70
2023/09/07 06:40:39;;;;;;;;;15.00;13.67;;;;;26.31;45.37;101112.53;5118316;27;45329;-70
2023/09/07 06:43:05;;;;;;;;;18.67;13.67;;;;;26.63;44.36;101110.22;5118439;27;45365;-69
2023/09/07 06:45:35;;;;;;;;;17.00;12.67;;;;;27.01;43.75;101111.56;5105277;27;45430;-69
2023/09/07 06:48:01;;;;;;;;;14.67;14.33;;;;;27.12;42.51;101075.22;5108892;27;47626;-69
2023/09/07 06:50:26;;;;;;;;;12.33;12.33;;;;;27.62;42.70;101112.66;5097788;27;45284;-68
2023/09/07 06:52:52;;;;;;;;;14.00;13.33;;;;;27.96;41.33;101117.06;5097762;27;45277;-69
2023/09/07 06:55:17;;;;;;;;;13.00;13.00;;;;;27.97;41.46;101074.97;5097895;27;45882;-69
2023/09/07 06:57:42;;;;;;;;;14.00;14.00;;;;;28.54;40.34;101115.72;5097277;27;55013;-69
2023/09/07 07:00:08;;;;;;;;;11.67;11.00;;;;;28.88;39.59;101116.44;5098156;27;45319;-69
2023/09/07 07:02:34;;;;;;;;;16.67;13.67;;;;;29.24;39.29;101125.88;5094431;27;45481;-68
2023/09/07 07:04:59;;;;;;;;;13.00;13.00;;;;;29.52;38.05;101115.75;5118681;27;45351;-67
2023/09/07 07:07:25;;;;;;;;;12.33;12.33;;;;;29.73;37.38;101112.06;5111228;27;46048;-70
2023/09/07 07:09:52;;;;;;;;;15.00;13.33;;;;;29.97;37.41;101105.13;5107183;27;45552;-69
2023/09/07 07:12:18;;;;;;;;;12.00;12.00;;;;;30.31;36.28;101115.78;5118455;27;45588;-68
2023/09/07 07:14:43;;;;;;;;;11.00;11.00;;;;;30.59;35.53;101120.84;5114419;27;45260;-69
2023/09/07 07:17:09;;;;;;;;;11.67;11.67;;;;;30.92;35.55;101113.31;5095221;27;48137;-70
2023/09/07 07:19:37;;;;;;;;;12.00;11.00;;;;;31.18;35.19;101101.31;5118143;27;45308;-70
2023/09/07 07:22:02;;;;;;;;;10.00;8.33;;;;;31.65;34.24;101108.50;5110251;27;45147;-74
2023/09/07 07:24:28;;;;;;;;;8.33;8.33;;;;;31.75;34.09;101094.75;5095491;27;45614;-70
2023/09/07 07:26:53;;;;;;;;;12.00;9.67;;;;;32.03;32.74;101092.50;5114391;27;45621;-70
2023/09/07 07:29:19;;;;;;;;;11.67;10.67;;;;;32.36;33.13;101111.16;5097099;27;45252;-67
2023/09/07 07:31:44;;;;;;;;;10.67;7.67;;;;;32.47;32.45;101103.69;5108897;27;45451;-69
2023/09/07 07:34:09;;;;;;;;;10.67;9.67;;;;;32.77;31.74;101105.47;5101659;27;45286;-68
2023/09/07 07:36:35;;;;;;;;;13.00;10.00;;;;;32.80;32.04;101104.94;5096923;27;48272;-70
2023/09/07 07:39:01;;;;;;;;;7.33;7.33;;;;;32.97;31.53;101088.84;5089278;27;45484;-69
2023/09/07 07:41:26;;;;;;;;;7.00;7.00;;;;;33.29;31.05;101093.06;5097392;27;45537;-69
2023/09/07 07:43:52;;;;;;;;;10.33;10.33;;;;;33.61;30.21;101106.31;5097307;27;45433;-68
2023/09/07 07:46:19;;;;;;;;;10.00;10.00;;;;;33.83;29.89;101094.81;5098294;27;46688;-68
2023/09/07 07:48:44;;;;;;;;;11.33;9.67;;;;;34.10;28.82;101092.38;5097023;27;45299;-69
2023/09/07 07:51:10;;;;;;;;;11.00;9.33;;;;;34.41;29.27;101089.25;5097122;27;45426;-69
2023/09/07 07:53:35;;;;;;;;;12.00;11.67;;;;;34.39;28.87;101091.50;5097343;27;45372;-70
2023/09/07 07:56:00;;;;;;;;;12.33;10.00;;;;;34.69;29.06;101118.72;5097003;27;45387;-69
2023/09/07 07:58:26;;;;;;;;;11.67;10.67;;;;;34.92;28.63;101108.78;5078794;27;45505;-69
2023/09/07 08:00:51;;;;;;;;;8.50;8.50;;;;;35.29;28.39;101115.41;5104915;27;45574;-68
2023/09/07 08:03:17;;;;;;;;;8.00;8.00;;;;;35.66;28.27;101114.56;5105875;27;45452;-69
2023/09/07 08:05:42;;;;;;;;;11.67;10.67;;;;;35.91;27.39;101111.34;5111696;27;46051;-68
2023/09/07 08:08:08;;;;;;;;;7.67;7.67;;;;;36.07;27.53;101075.91;5100339;27;45426;-70
2023/09/07 08:10:36;;;;;;;;;9.33;9.00;;;;;36.15;26.76;101099.28;5101879;27;45412;-69
2023/09/07 08:13:02;;;;;;;;;11.00;11.00;;;;;36.28;26.62;101119.81;5101314;27;45489;-68
2023/09/07 08:15:28;;;;;;;;;10.00;8.67;;;;;36.17;27.45;101125.53;5100644;27;45982;-70
2023/09/07 08:17:54;;;;;;;;;11.00;11.00;;;;;36.20;26.87;101124.09;5105751;27;45405;-69
2023/09/07 08:20:19;;;;;;;;;11.00;10.67;;;;;36.15;27.40;101116.72;5100133;27;45458;-68
2023/09/07 08:22:45;;;;;;;;;11.33;9.33;;;;;36.26;27.17;101117.34;5100440;27;45378;-68
2023/09/07 08:25:15;;;;;;;;;8.33;7.33;;;;;36.36;26.83;101102.50;5099960;27;45711;-70
2023/09/07 08:27:44;;;;;;;;;9.00;9.00;;;;;36.68;26.43;101107.09;5083509;27;45552;-70
2023/09/07 08:30:18;;;;;;;;;10.33;10.33;;;;;36.80;26.20;101110.16;5100313;27;45417;-67
2023/09/07 08:32:45;;;;;;;;;12.00;11.67;;;;;36.69;26.63;101100.41;5100478;27;45546;-69
2023/09/07 08:35:15;;;;;;;;;12.67;9.67;;;;;36.74;25.80;101101.13;5098875;27;46368;-69
2023/09/07 08:37:40;;;;;;;;;9.33;9.33;;;;;36.85;25.96;101108.09;5104496;27;45436;-68
2023/09/07 08:40:09;;;;;;;;;14.67;13.67;;;;;36.91;25.58;101094.94;5100302;27;45320;-67
2023/09/07 08:42:40;;;;;;;;;8.33;8.33;;;;;36.92;25.41;101096.59;5101881;27;45462;-68
2023/09/07 08:45:08;;;;;;;;;9.00;8.00;;;;;37.26;25.61;101106.38;5095945;27;45903;-69
2023/09/07 08:47:35;;;;;;;;;8.00;8.00;;;;;37.60;25.45;101111.31;5114464;27;45304;-68
2023/09/07 08:50:02;;;;;;;;;10.67;10.33;;;;;37.87;25.36;101099.28;5104911;27;45257;-71
2023/09/07 08:52:28;;;;;;;;;8.00;8.00;;;;;38.15;24.70;101092.38;5114216;27;45254;-68
2023/09/07 08:54:55;;;;;;;;;9.00;9.00;;;;;38.41;24.28;101091.66;5100126;27;46210;-70
2023/09/07 08:57:21;;;;;;;;;9.67;8.67;;;;;38.70;24.17;101094.69;5099309;27;45543;-69
2023/09/07 08:59:47;;;;;;;;;8.33;8.33;;;;;38.80;23.82;101091.59;5099998;27;45697;-69
2023/09/07 09:02:12;;;;;;;;;10.33;9.33;;;;;39.01;23.74;101091.75;5109507;27;45534;-69
2023/09/07 09:04:39;;;;;;;;;11.00;10.67;;;;;39.10;23.93;101092.63;5120036;27;46571;-69
2023/09/07 09:07:04;;;;;;;;;11.00;11.00;;;;;38.78;23.52;101074.41;5109360;27;45499;-68
2023/09/07 09:09:30;;;;;;;;;12.67;10.67;;;;;38.66;23.76;101048.44;5081244;27;45492;-69
2023/09/07 09:12:07;;;;;;;;;12.00;12.00;;;;;38.83;23.39;101088.16;5081486;27;45320;-68
2023/09/07 09:14:32;;;;;;;;;13.33;11.67;;;;;38.71;23.71;101090.78;5099395;27;46758;-69
2023/09/07 09:16:57;;;;;;;;;10.00;10.00;;;;;38.45;23.74;101037.09;5114160;27;45354;-69
2023/09/07 09:19:33;;;;;;;;;11.33;11.33;;;;;38.56;23.74;101038.41;5119961;27;45453;-69
2023/09/07 09:21:58;;;;;;;;;14.33;12.00;;;;;39.32;23.77;101088.84;5114205;27;45407;-69
2023/09/07 09:24:24;;;;;;;;;13.67;12.00;;;;;40.10;22.25;101092.25;5086332;27;45678;-69
2023/09/07 09:26:49;;;;;;;;;10.67;10.67;;;;;40.87;21.62;101040.00;5098633;27;45244;-69
2023/09/07 09:29:15;;;;;;;;;9.67;9.67;;;;;41.88;20.26;101079.53;5099260;27;45437;-70
2023/09/07 09:31:41;;;;;;;;;13.33;11.00;;;;;42.55;19.97;101082.94;5093103;27;45391;-69
2023/09/07 09:34:06;;;;;;;;;12.33;11.00;;;;;43.29;19.46;101087.19;5082009;27;45761;-70
2023/09/07 09:36:37;;;;;;;;;14.33;11.00;;;;;43.86;18.65;101074.72;5083591;27;45428;-69
2023/09/07 09:39:03;;;;;;;;;17.00;13.67;;;;;44.69;17.93;101099.94;5078828;28;45399;-70
2023/09/07 09:41:31;;;;;;;;;12.67;12.00;;;;;45.19;17.15;101079.34;5080149;27;45443;-69
2023/09/07 09:43:58;;;;;;;;;11.33;11.33;;;;;45.60;16.94;101093.78;5059910;28;46491;-68
2023/09/07 09:46:25;;;;;;;;;13.33;13.33;;;;;45.58;16.87;101045.59;5078464;27;45397;-69
2023/09/07 09:48:52;;;;;;;;;15.00;13.00;;;;;46.02;16.66;101096.56;5078107;28;45516;-69
2023/09/07 09:51:18;;;;;;;;;11.33;10.33;;;;;45.78;16.50;101062.03;5077283;27;45578;-69
2023/09/07 09:53:44;;;;;;;;;11.67;10.67;;;;;45.65;16.60;101073.84;5098646;27;45598;-69
2023/09/07 09:56:10;;;;;;;;;12.33;12.33;;;;;45.03;17.33;101087.84;5098236;27;45474;-68
2023/09/07 09:58:35;;;;;;;;;10.33;10.00;;;;;44.29;18.51;101096.22;5098508;27;45311;-69
2023/09/07 10:01:05;;;;;;;;;10.00;10.00;;;;;43.44;18.56;101091.16;5094936;27;45487;-68
2023/09/07 10:03:45;;;;;;;;;10.33;9.33;;;;;42.16;20.31;101092.84;5063800;28;45815;-69
2023/09/07 10:06:12;;;;;;;;;10.67;10.00;;;;;41.13;20.95;101087.19;5095382;27;45360;-70
2023/09/07 10:08:37;;;;;;;;;11.67;11.33;;;;;39.89;21.56;101091.34;5088202;27;45478;-73
2023/09/07 10:11:09;;;;;;;;;12.00;10.67;;;;;38.79;23.51;101089.94;5079995;27;45476;-68
2023/09/07 10:13:35;;;;;;;;;10.00;10.00;;;;;38.00;24.32;101078.91;5086527;27;45710;-68
2023/09/07 10:16:07;;;;;;;;;12.33;11.33;;;;;37.53;24.89;101089.56;5077546;28;45420;-69
2023/09/07 10:18:34;;;;;;;;;12.00;10.33;;;;;36.85;25.55;101074.03;5086775;27;45476;-69
2023/09/07 10:21:02;;;;;;;;;17.00;14.00;;;;;36.40;26.59;101092.44;5079542;27;45534;-68
2023/09/07 10:23:38;;;;;;;;;14.33;12.67;;;;;35.95;27.22;101090.25;5108611;27;45876;-69
2023/09/07 10:26:05;;;;;;;;;9.33;9.33;;;;;34.84;27.43;100975.97;5113873;27;45162;-69
2023/09/07 10:28:31;;;;;;;;;12.00;11.00;;;;;35.22;27.99;101085.38;5102639;27;45312;-70
2023/09/07 10:30:59;;;;;;;;;12.67;10.67;;;;;34.90;28.64;101080.63;5098572;27;45472;-70
2023/09/07 10:33:25;;;;;;;;;12.33;11.67;;;;;34.57;28.79;101074.16;5100917;27;45612;-72
2023/09/07 10:35:50;;;;;;;;;14.00;12.00;;;;;34.14;29.60;101081.56;5095815;27;45529;-70
2023/09/07 10:38:16;;;;;;;;;12.33;11.33;;;;;33.68;30.08;101075.66;5112143;27;45477;-70
2023/09/07 10:40:45;;;;;;;;;10.00;10.00;;;;;33.32;30.89;101075.97;5092436;27;45544;-73
2023/09/07 10:43:10;;;;;;;;;11.67;10.33;;;;;33.10;31.14;101084.66;5093931;27;46445;-69
2023/09/07 10:45:36;;;;;;;;;14.67;12.67;;;;;32.84;32.02;101081.25;5095635;27;45587;-70
2023/09/07 10:48:03;;;;;;;;;10.33;9.33;;;;;32.45;32.43;101066.56;5109108;27;45416;-69
2023/09/07 10:50:29;;;;;;;;;12.67;12.67;;;;;32.25;32.77;101057.25;5111352;27;45376;-69
2023/09/07 10:52:55;;;;;;;;;11.67;11.33;;;;;32.11;33.13;101064.44;5099460;27;46372;-69
2023/09/07 10:55:20;;;;;;;;;12.00;12.00;;;;;31.86;33.17;101056.25;5097668;27;45398;-67
2023/09/07 10:57:47;;;;;;;;;12.33;11.00;;;;;31.59;33.40;101054.59;5108874;27;45565;-69
2023/09/07 11:00:14;;;;;;;;;11.00;8.67;;;;;31.51;33.67;101065.34;5100358;27;45435;-69
2023/09/07 11:02:41;;;;;;;;;10.67;10.00;;;;;31.35;33.83;101061.75;5095497;27;46996;-72
2023/09/07 11:05:07;;;;;;;;;11.00;9.67;;;;;31.23;34.33;101058.44;5101302;27;45450;-72
2023/09/07 11:07:33;;;;;;;;;26.67;26.67;;;;;31.21;34.69;101061.47;5114196;27;45318;-69
2023/09/07 11:09:59;;;;;;;;;26.33;25.67;;;;;31.14;34.85;101049.91;5115205;27;45511;-69
2023/09/07 11:12:24;;;;;;;;;13.00;12.00;;;;;31.14;34.59;101055.41;5098345;27;45508;-67